Time;durP1;ratioP1;P1;durP2;ratioP2;P2;SDS_P1;SDS_P2;PMS_P1;PMS_P2;Temp;Humidity;BMP_temperature;BMP_pressure;BME280_temperature;BME280_humidity;BME280_pressure;Samples;Min_cycle;Max_cycle;Signal;HPM_P1;HPM_P2
2020/12/03 00:01:49;;;;;;;31.57;24.07;;;;;;;-3.33;99.41;97588.13;4969658;28;20456;-71
2020/12/03 00:04:16;;;;;;;28.57;21.83;;;;;;;-3.32;98.96;97582.81;4970790;28;20499;-69
2020/12/03 00:06:48;;;;;;;29.90;24.43;;;;;;;-3.27;98.77;97588.56;4972566;28;21318;-70
2020/12/03 00:09:17;;;;;;;27.67;22.97;;;;;;;-3.16;98.55;97584.56;4934957;28;20456;-70
2020/12/03 00:11:47;;;;;;;32.33;24.23;;;;;;;-3.14;97.00;97593.91;4968478;28;20474;-71
2020/12/03 00:14:14;;;;;;;26.63;22.13;;;;;;;-3.06;97.28;97596.06;4969481;28;20512;-69
2020/12/03 00:16:41;;;;;;;35.27;24.27;;;;;;;-3.10;97.32;97585.03;4955995;28;20590;-70
2020/12/03 00:19:11;;;;;;;30.70;22.60;;;;;;;-3.21;96.90;97580.47;4973562;28;20565;-69
2020/12/03 00:21:40;;;;;;;31.87;24.07;;;;;;;-3.24;98.50;97577.22;4966710;28;20794;-71
2020/12/03 00:24:08;;;;;;;29.93;23.93;;;;;;;-3.13;98.41;97574.00;4940780;28;20786;-70
2020/12/03 00:26:36;;;;;;;28.47;22.03;;;;;;;-3.02;95.54;97568.22;4969975;28;20452;-71
2020/12/03 00:29:04;;;;;;;28.23;22.43;;;;;;;-3.24;97.56;97572.84;4977257;28;20504;-71
2020/12/03 00:31:32;;;;;;;26.60;22.27;;;;;;;-3.11;96.66;97582.53;4959834;28;21040;-72
2020/12/03 00:33:59;;;;;;;27.83;21.97;;;;;;;-2.98;96.11;97573.13;4976485;28;20452;-70
2020/12/03 00:36:27;;;;;;;30.87;23.73;;;;;;;-3.13;95.81;97579.19;4970298;28;20691;-70
2020/12/03 00:38:54;;;;;;;26.63;22.93;;;;;;;-2.92;94.32;97577.94;4941227;28;20448;-71
2020/12/03 00:41:21;;;;;;;26.30;21.67;;;;;;;-2.83;93.01;97570.56;4964438;28;20442;-69
2020/12/03 00:43:49;;;;;;;28.17;22.33;;;;;;;-3.00;94.87;97577.56;4978899;28;21039;-70
2020/12/03 00:46:16;;;;;;;27.07;22.17;;;;;;;-3.06;94.43;97575.31;4966513;28;20448;-69
2020/12/03 00:48:43;;;;;;;27.70;21.97;;;;;;;-3.12;94.61;97576.50;4967065;28;22687;-71
2020/12/03 00:51:12;;;;;;;25.73;21.10;;;;;;;-2.98;94.60;97567.94;4975188;28;20444;-69
2020/12/03 00:53:40;;;;;;;30.47;22.90;;;;;;;-2.88;93.36;97583.78;4964411;28;20723;-71
2020/12/03 00:56:07;;;;;;;27.60;20.73;;;;;;;-3.10;93.70;97579.84;4937979;28;21012;-69
2020/12/03 00:58:34;;;;;;;27.47;22.80;;;;;;;-3.09;95.05;97578.09;4971705;28;21066;-71
2020/12/03 01:01:02;;;;;;;27.83;22.73;;;;;;;-3.00;94.69;97582.75;4974201;28;20461;-71
2020/12/03 01:03:29;;;;;;;29.67;23.50;;;;;;;-3.13;95.44;97576.59;4956532;28;20489;-72
2020/12/03 01:05:56;;;;;;;28.33;23.70;;;;;;;-3.01;95.85;97575.88;4971897;28;20481;-71
2020/12/03 01:08:23;;;;;;;23.77;21.17;;;;;;;-2.81;94.39;97566.13;4967324;28;20954;-70
2020/12/03 01:10:50;;;;;;;31.37;24.10;;;;;;;-2.90;94.74;97567.50;4933532;28;20551;-71
2020/12/03 01:13:17;;;;;;;28.87;22.77;;;;;;;-2.93;94.00;97573.69;4965729;28;20838;-70
2020/12/03 01:15:45;;;;;;;28.90;24.53;;;;;;;-3.06;94.73;97580.50;4973126;28;20683;-71
2020/12/03 01:18:13;;;;;;;27.87;22.67;;;;;;;-2.98;94.79;97580.06;4971560;28;20471;-69
2020/12/03 01:20:40;;;;;;;27.13;21.57;;;;;;;-3.14;96.10;97570.56;4965310;28;20461;-72
2020/12/03 01:23:07;;;;;;;25.97;21.37;;;;;;;-3.14;98.08;97569.75;4973200;28;20788;-71
2020/12/03 01:25:35;;;;;;;26.73;21.33;;;;;;;-3.07;97.57;97558.09;4939201;28;21304;-70
2020/12/03 01:28:02;;;;;;;25.83;20.47;;;;;;;-2.89;96.81;97560.53;4973086;28;20436;-70
2020/12/03 01:30:29;;;;;;;27.90;22.57;;;;;;;-2.89;96.18;97558.78;4966194;28;20465;-70
2020/12/03 01:32:56;;;;;;;29.50;22.30;;;;;;;-2.81;95.77;97568.72;4974796;28;20437;-70
2020/12/03 01:35:24;;;;;;;27.73;21.90;;;;;;;-3.00;95.77;97556.81;4960049;28;20469;-68
2020/12/03 01:37:52;;;;;;;27.17;23.03;;;;;;;-3.14;96.81;97549.84;4976295;28;20445;-70
2020/12/03 01:40:21;;;;;;;27.73;22.37;;;;;;;-3.03;97.75;97544.03;4974409;28;20961;-68
2020/12/03 01:42:49;;;;;;;28.07;21.73;;;;;;;-2.92;97.31;97540.81;4938199;28;20492;-71
2020/12/03 01:45:54;;;;;;;26.47;21.93;;;;;;;-2.97;94.72;97542.84;4967472;28;20469;-68
2020/12/03 01:48:30;;;;;;;28.17;21.37;;;;;;;-3.10;96.20;97545.31;4969750;28;20456;-70
2020/12/03 01:50:59;;;;;;;28.33;22.13;;;;;;;-3.05;95.84;97535.50;4953881;28;20463;-71
2020/12/03 01:53:26;;;;;;;27.50;21.50;;;;;;;-2.99;95.53;97524.78;4966371;28;20449;-70
2020/12/03 01:55:54;;;;;;;28.77;21.83;;;;;;;-3.01;95.33;97520.63;4962962;28;20468;-70
2020/12/03 01:58:31;;;;;;;27.20;20.97;;;;;;;-2.98;96.16;97517.84;4926434;28;20727;-71
2020/12/03 02:01:00;;;;;;;25.27;20.43;;;;;;;-2.87;94.81;97512.84;4969272;28;20444;-69
2020/12/03 02:03:27;;;;;;;25.90;20.27;;;;;;;-2.93;93.98;97514.03;4975223;28;20516;-70
2020/12/03 02:05:54;;;;;;;29.60;22.37;;;;;;;-2.90;95.50;97513.03;4960460;28;20845;-69
2020/12/03 02:08:22;;;;;;;22.77;19.90;;;;;;;-2.89;94.91;97512.09;4976176;28;20459;-71
2020/12/03 02:10:50;;;;;;;27.50;21.57;;;;;;;-2.86;94.72;97505.88;4973942;28;20483;-70
2020/12/03 02:13:17;;;;;;;28.00;21.47;;;;;;;-3.02;95.94;97496.44;4930847;28;21202;-70
2020/12/03 02:15:44;;;;;;;27.43;20.70;;;;;;;-3.00;96.46;97486.00;4970668;28;20491;-71
2020/12/03 02:18:11;;;;;;;27.13;21.67;;;;;;;-2.88;93.93;97490.44;4972251;28;20734;-70
2020/12/03 02:20:39;;;;;;;25.97;20.60;;;;;;;-2.94;94.76;97486.44;4957066;28;20467;-70
2020/12/03 02:23:11;;;;;;;26.50;21.80;;;;;;;-3.08;95.36;97496.81;4956189;28;20570;-69
2020/12/03 02:25:38;;;;;;;26.03;21.13;;;;;;;-3.09;96.57;97488.19;4976803;28;20473;-71
2020/12/03 02:28:05;;;;;;;27.37;20.90;;;;;;;-3.01;96.11;97490.31;4934888;28;21031;-70
2020/12/03 02:30:32;;;;;;;26.80;22.27;;;;;;;-3.03;96.14;97481.81;4970093;28;20450;-70
2020/12/03 02:33:00;;;;;;;28.83;21.57;;;;;;;-3.12;97.00;97472.00;4966186;28;20467;-69
2020/12/03 02:35:27;;;;;;;26.27;21.87;;;;;;;-3.00;96.75;97476.44;4967374;28;20481;-71
2020/12/03 02:37:55;;;;;;;26.30;21.67;;;;;;;-2.99;96.83;97467.72;4959540;28;20466;-69
2020/12/03 02:40:22;;;;;;;26.10;21.30;;;;;;;-2.85;96.39;97468.66;4966214;28;20554;-71
2020/12/03 02:42:50;;;;;;;27.37;21.97;;;;;;;-2.93;96.21;97469.94;4962915;28;20475;-69
2020/12/03 02:45:17;;;;;;;28.07;21.17;;;;;;;-2.92;96.04;97474.22;4951564;28;20912;-71
2020/12/03 02:47:44;;;;;;;27.23;21.87;;;;;;;-2.81;95.65;97465.78;4973824;28;20467;-70
2020/12/03 02:50:11;;;;;;;27.27;22.43;;;;;;;-2.87;96.56;97467.91;4964537;28;20734;-71
2020/12/03 02:52:38;;;;;;;29.10;21.90;;;;;;;-2.78;96.50;97455.22;4957076;28;20457;-71
2020/12/03 02:55:06;;;;;;;28.37;23.23;;;;;;;-2.87;96.71;97457.53;4970888;28;20472;-70
2020/12/03 02:57:33;;;;;;;26.83;21.17;;;;;;;-2.81;96.01;97454.59;4969880;28;20453;-70
2020/12/03 03:00:00;;;;;;;26.83;21.50;;;;;;;-2.86;96.44;97454.88;4938241;28;20467;-71
2020/12/03 03:02:27;;;;;;;29.27;23.10;;;;;;;-2.95;96.37;97445.88;4970005;28;20829;-71
2020/12/03 03:04:54;;;;;;;26.73;21.73;;;;;;;-2.94;97.58;97450.13;4964111;28;20499;-71
2020/12/03 03:07:21;;;;;;;30.13;23.67;;;;;;;-2.93;97.26;97451.78;4962974;28;21008;-71
2020/12/03 03:09:48;;;;;;;30.57;23.83;;;;;;;-3.00;99.18;97450.50;4966617;28;20819;-70
2020/12/03 03:12:17;;;;;;;32.93;23.90;;;;;;;-3.02;98.75;97446.34;4968805;28;20453;-71
2020/12/03 03:14:44;;;;;;;30.60;23.53;;;;;;;-2.94;97.80;97439.75;4942150;28;20472;-68
2020/12/03 03:17:11;;;;;;;28.13;22.03;;;;;;;-2.86;97.37;97435.88;4965387;28;20548;-70
2020/12/03 03:19:38;;;;;;;29.47;24.10;;;;;;;-2.91;97.88;97444.75;4970623;28;20833;-68
2020/12/03 03:22:05;;;;;;;29.97;23.50;;;;;;;-3.03;98.78;97439.47;4964843;28;20469;-70
2020/12/03 03:24:32;;;;;;;31.27;23.27;;;;;;;-3.00;99.38;97440.13;4954966;28;20884;-68
2020/12/03 03:26:59;;;;;;;30.87;23.37;;;;;;;-3.02;98.04;97436.81;4959781;28;20445;-70
2020/12/03 03:29:27;;;;;;;33.17;23.60;;;;;;;-3.06;98.12;97437.91;4970164;28;20444;-70
2020/12/03 03:31:54;;;;;;;28.70;23.17;;;;;;;-3.11;98.11;97430.41;4935476;28;21215;-70
2020/12/03 03:34:21;;;;;;;30.77;23.60;;;;;;;-2.88;98.73;97420.41;4969815;28;20226;-71
2020/12/03 03:36:48;;;;;;;32.43;23.87;;;;;;;-2.69;96.35;97417.53;4959941;28;20557;-71
2020/12/03 03:39:18;;;;;;;30.53;23.37;;;;;;;-2.75;96.52;97423.09;4943092;28;21000;-71
2020/12/03 03:41:46;;;;;;;26.80;22.30;;;;;;;-2.74;96.55;97424.75;4961261;28;20580;-71
2020/12/03 03:44:14;;;;;;;31.43;23.20;;;;;;;-2.76;96.92;97414.47;4965251;28;20500;-71
2020/12/03 03:46:42;;;;;;;31.77;24.50;;;;;;;-2.77;96.83;97411.97;4930880;28;21068;-70
2020/12/03 03:49:09;;;;;;;30.07;23.20;;;;;;;-2.88;97.90;97402.25;4970067;28;20463;-71
2020/12/03 03:51:36;;;;;;;33.77;25.13;;;;;;;-2.85;97.43;97403.81;4969304;28;20971;-71
2020/12/03 03:54:03;;;;;;;31.67;22.93;;;;;;;-2.91;97.89;97408.44;4960760;28;20453;-71
2020/12/03 03:56:30;;;;;;;32.23;23.83;;;;;;;-2.85;98.27;97402.06;4972440;28;20471;-71
2020/12/03 03:58:57;;;;;;;33.70;24.63;;;;;;;-2.92;98.88;97395.59;4978941;28;21112;-72
2020/12/03 04:01:24;;;;;;;32.90;24.40;;;;;;;-3.05;100.00;97392.91;4961862;28;20445;-71
2020/12/03 04:03:52;;;;;;;29.00;23.13;;;;;;;-2.95;99.50;97388.81;4956453;28;20736;-70
2020/12/03 04:06:19;;;;;;;32.27;24.27;;;;;;;-2.89;99.67;97385.03;4975863;28;20450;-71
2020/12/03 04:08:47;;;;;;;34.53;24.13;;;;;;;-2.85;98.76;97386.50;4960812;28;23205;-72
2020/12/03 04:11:15;;;;;;;37.63;24.60;;;;;;;-2.78;99.26;97385.19;4969595;28;20438;-71
2020/12/03 04:13:43;;;;;;;32.60;24.37;;;;;;;-2.84;99.68;97395.97;4975743;28;20467;-71
2020/12/03 04:16:11;;;;;;;31.50;23.17;;;;;;;-2.82;99.49;97404.47;4974758;28;20479;-71
2020/12/03 04:18:38;;;;;;;28.23;21.97;;;;;;;-2.67;98.04;97412.22;4938764;28;21146;-71
2020/12/03 04:21:07;;;;;;;28.97;22.40;;;;;;;-2.79;99.53;97412.06;4977570;28;20440;-73
2020/12/03 04:23:35;;;;;;;37.10;25.03;;;;;;;-2.73;99.06;97403.09;4969693;28;20579;-70
2020/12/03 04:26:02;;;;;;;34.60;24.33;;;;;;;-2.87;98.76;97396.16;4960399;28;20469;-72
2020/12/03 04:28:29;;;;;;;30.70;23.47;;;;;;;-2.68;98.54;97398.44;4969861;28;20449;-71
2020/12/03 04:30:57;;;;;;;30.80;22.93;;;;;;;-2.87;99.14;97403.06;4972896;28;20460;-72
2020/12/03 04:33:24;;;;;;;30.03;23.63;;;;;;;-2.99;98.94;97387.34;4964262;28;20445;-70
2020/12/03 04:35:51;;;;;;;29.40;22.83;;;;;;;-2.97;100.00;97395.06;4953498;28;20653;-74
2020/12/03 04:38:19;;;;;;;30.17;22.97;;;;;;;-2.88;100.00;97398.81;4974698;28;20457;-70
2020/12/03 04:40:47;;;;;;;29.93;24.17;;;;;;;-2.98;100.00;97391.63;4961777;28;20519;-72
2020/12/03 04:43:20;;;;;;;33.37;23.73;;;;;;;-2.88;99.46;97391.03;4968852;28;20965;-72
2020/12/03 04:45:52;;;;;;;28.17;23.90;;;;;;;-2.79;99.24;97401.69;4973430;28;20500;-72
2020/12/03 04:48:41;;;;;;;30.17;23.43;;;;;;;-2.73;97.98;97404.81;4970699;28;20825;-71
2020/12/03 04:51:29;;;;;;;30.73;21.97;;;;;;;-2.66;97.45;97388.78;4936260;28;20488;-72
2020/12/03 04:54:04;;;;;;;30.10;22.20;;;;;;;-2.60;96.76;97387.59;4976730;28;20944;-72
2020/12/03 04:56:34;;;;;;;28.97;22.73;;;;;;;-2.78;97.70;97387.78;4956588;28;20733;-70
2020/12/03 04:59:12;;;;;;;29.60;22.20;;;;;;;-2.89;98.55;97379.00;4969759;28;20942;-71
2020/12/03 05:02:13;;;;;;;35.23;24.50;;;;;;;-2.92;99.30;97385.22;4968771;28;20452;-72
2020/12/03 05:04:48;;;;;;;29.57;23.00;;;;;;;-2.72;98.57;97378.81;4894718;28;20721;-68
2020/12/03 05:07:15;;;;;;;32.70;24.57;;;;;;;-2.92;99.03;97380.03;4972291;28;20976;-67
2020/12/03 05:09:47;;;;;;;31.87;23.47;;;;;;;-2.80;98.84;97379.28;4975048;28;20693;-69
2020/12/03 05:12:18;;;;;;;33.20;23.13;;;;;;;-2.79;97.09;97378.34;4963818;28;21099;-68
2020/12/03 05:14:47;;;;;;;31.73;23.40;;;;;;;-2.82;97.66;97375.13;4970404;28;20739;-66
2020/12/03 05:17:30;;;;;;;29.30;22.67;;;;;;;-2.68;97.76;97371.66;4966721;28;21000;-67
2020/12/03 05:20:23;;;;;;;31.43;22.67;;;;;;;-2.72;97.18;97363.25;4976311;28;20448;-68
2020/12/03 05:22:56;;;;;;;29.93;22.60;;;;;;;-2.54;94.71;97361.25;4966799;28;20456;-68
2020/12/03 05:25:25;;;;;;;32.07;22.33;;;;;;;-2.70;95.02;97350.16;4970067;28;20496;-67
2020/12/03 05:27:53;;;;;;;30.27;22.73;;;;;;;-2.78;96.67;97353.25;4964376;28;20446;-68
2020/12/03 05:30:23;;;;;;;27.67;21.47;;;;;;;-2.70;95.70;97343.22;4969338;28;20449;-65
2020/12/03 05:32:50;;;;;;;30.53;23.33;;;;;;;-2.82;95.51;97337.03;4971324;28;20454;-68
2020/12/03 05:35:18;;;;;;;29.50;21.97;;;;;;;-2.87;97.48;97340.84;4955420;28;20584;-66
2020/12/03 05:37:46;;;;;;;31.47;23.40;;;;;;;-2.80;95.89;97339.56;4953190;28;20461;-68
2020/12/03 05:40:23;;;;;;;29.53;22.30;;;;;;;-2.71;94.09;97335.53;4973125;28;20476;-66
2020/12/03 05:42:54;;;;;;;33.63;22.70;;;;;;;-2.74;95.17;97340.91;4956559;28;21294;-67
2020/12/03 05:45:27;;;;;;;30.37;22.00;;;;;;;-2.68;94.50;97341.38;4968059;28;20492;-66
2020/12/03 05:47:57;;;;;;;32.37;22.13;;;;;;;-2.74;95.60;97340.91;4966195;28;20988;-67
2020/12/03 05:50:34;;;;;;;26.60;21.40;;;;;;;-2.87;96.09;97335.66;4941286;28;20976;-72
2020/12/03 05:53:05;;;;;;;29.73;22.03;;;;;;;-2.80;96.29;97340.38;4968073;28;20441;-71
2020/12/03 05:55:32;;;;;;;29.37;22.43;;;;;;;-2.78;96.21;97335.09;4960992;28;20862;-72
2020/12/03 05:58:14;;;;;;;33.13;21.03;;;;;;;-2.84;96.93;97333.72;4957844;28;20473;-72
2020/12/03 06:00:41;;;;;;;29.50;21.07;;;;;;;-2.82;96.83;97329.25;4956387;28;21104;-72
2020/12/03 06:03:37;;;;;;;29.07;21.43;;;;;;;-2.66;95.45;97336.06;4968648;28;20454;-71
2020/12/03 06:06:26;;;;;;;29.03;21.07;;;;;;;-2.80;96.67;97329.19;4970431;28;20488;-71
2020/12/03 06:09:04;;;;;;;30.43;22.13;;;;;;;-2.95;97.65;97326.59;4969886;28;20905;-71
2020/12/03 06:11:38;;;;;;;32.67;22.37;;;;;;;-2.86;98.94;97319.16;4961859;28;20575;-73
2020/12/03 06:14:28;;;;;;;29.60;22.30;;;;;;;-2.84;98.38;97317.31;4952492;28;20480;-72
2020/12/03 06:17:01;;;;;;;31.03;22.23;;;;;;;-2.72;96.83;97324.34;4936659;28;20449;-72
2020/12/03 06:19:42;;;;;;;29.23;21.03;;;;;;;-2.69;97.14;97321.53;4969334;28;20449;-72
2020/12/03 06:22:17;;;;;;;29.87;21.33;;;;;;;-2.59;95.76;97308.81;4937277;28;20696;-73
2020/12/03 06:25:01;;;;;;;30.90;21.80;;;;;;;-2.67;96.18;97311.06;4970666;28;20479;-72
2020/12/03 06:28:06;;;;;;;33.40;22.57;;;;;;;-2.72;96.39;97301.00;4968065;28;20478;-71
2020/12/03 06:30:38;;;;;;;31.67;23.37;;;;;;;-2.50;94.79;97291.81;4953416;28;20445;-72
2020/12/03 06:33:33;;;;;;;32.40;20.67;;;;;;;-2.54;95.38;97298.97;4969026;28;20456;-72
2020/12/03 06:36:06;;;;;;;30.30;20.73;;;;;;;-2.48;98.21;97295.13;4971301;28;20834;-72
2020/12/03 06:38:37;;;;;;;29.07;21.43;;;;;;;-2.57;99.72;97306.13;4928164;28;20767;-72
2020/12/03 06:41:29;;;;;;;31.50;21.70;;;;;;;-2.57;97.74;97299.19;4969014;28;20456;-73
2020/12/03 06:44:08;;;;;;;28.63;22.07;;;;;;;-2.52;98.38;97297.13;4969123;28;20485;-71
2020/12/03 06:46:50;;;;;;;29.10;21.33;;;;;;;-2.63;96.37;97307.34;4953060;28;20449;-72
2020/12/03 06:49:44;;;;;;;30.70;22.87;;;;;;;-2.46;96.78;97301.09;4972774;28;20456;-72
2020/12/03 06:52:40;;;;;;;29.10;21.50;;;;;;;-2.58;96.95;97294.91;4965436;28;21029;-71
2020/12/03 06:55:29;;;;;;;32.03;22.07;;;;;;;-2.52;95.79;97299.72;4931131;28;20465;-70
2020/12/03 06:58:30;;;;;;;32.33;23.07;;;;;;;-2.55;97.20;97304.25;4972776;28;20957;-72
2020/12/03 07:01:24;;;;;;;31.63;21.80;;;;;;;-2.35;100.00;97297.78;4968902;28;20460;-73
2020/12/03 07:04:26;;;;;;;30.17;21.77;;;;;;;-2.47;97.59;97308.03;4976162;28;20488;-72
2020/12/03 07:07:25;;;;;;;36.83;23.20;;;;;;;-2.56;96.68;97303.44;4973085;28;20456;-71
2020/12/03 07:10:38;;;;;;;28.37;20.60;;;;;;;-2.54;100.00;97306.75;4933234;28;20465;-72
2020/12/03 07:13:41;;;;;;;31.00;20.83;;;;;;;-2.44;100.00;97308.75;4942651;28;20463;-72
2020/12/03 07:16:29;;;;;;;30.80;22.53;;;;;;;-2.33;99.59;97309.72;4913226;29;20486;-72
2020/12/03 07:19:40;;;;;;;29.03;21.10;;;;;;;-2.26;99.81;97309.31;4958201;28;20865;-71
2020/12/03 07:22:12;;;;;;;34.33;22.27;;;;;;;-2.33;100.00;97311.47;4934461;28;20457;-72
2020/12/03 07:24:42;;;;;;;32.20;21.60;;;;;;;-2.14;100.00;97307.69;4937721;28;22713;-71
2020/12/03 07:27:32;;;;;;;28.93;22.63;;;;;;;-2.13;97.79;97301.56;4965300;28;20452;-71
2020/12/03 07:30:02;;;;;;;30.53;22.47;;;;;;;-2.21;98.76;97305.50;4973183;28;20453;-72
2020/12/03 07:32:50;;;;;;;30.03;22.13;;;;;;;-2.24;99.78;97300.50;4966422;28;20829;-72
2020/12/03 07:35:30;;;;;;;29.87;22.33;;;;;;;-2.13;97.27;97298.97;4958498;28;20472;-72
2020/12/03 07:38:04;;;;;;;26.13;20.37;;;;;;;-2.03;98.99;97305.22;4972983;28;20441;-73
2020/12/03 07:40:32;;;;;;;32.07;22.73;;;;;;;-2.18;99.25;97301.84;4934597;28;20740;-73
2020/12/03 07:43:04;;;;;;;33.13;22.73;;;;;;;-2.15;96.91;97301.66;4971129;28;20460;-69
2020/12/03 07:45:37;;;;;;;29.77;21.47;;;;;;;-2.08;96.91;97310.72;4966452;28;21189;-69
2020/12/03 07:48:14;;;;;;;29.53;22.13;;;;;;;-1.95;98.30;97304.72;4974297;28;20491;-71
2020/12/03 07:50:50;;;;;;;32.60;22.87;;;;;;;-2.05;95.62;97296.69;4966850;28;20467;-71
2020/12/03 07:53:22;;;;;;;30.53;23.37;;;;;;;-2.12;95.70;97295.44;4962630;28;20444;-71
2020/12/03 07:55:50;;;;;;;31.20;21.80;;;;;;;-2.08;97.12;97295.16;4940142;28;20452;-72
2020/12/03 07:58:32;;;;;;;29.53;22.83;;;;;;;-1.91;97.05;97293.16;4965615;28;20485;-70
2020/12/03 08:01:00;;;;;;;33.47;22.43;;;;;;;-1.94;95.68;97291.59;4967797;28;20483;-71
2020/12/03 08:03:45;;;;;;;28.50;21.53;;;;;;;-2.01;95.52;97292.13;4968075;28;20441;-70
2020/12/03 08:06:19;;;;;;;31.43;20.60;;;;;;;-2.06;96.69;97292.44;4954902;28;20468;-71
2020/12/03 08:08:48;;;;;;;29.93;21.83;;;;;;;-1.93;93.55;97289.84;4967661;28;20920;-71
2020/12/03 08:11:42;;;;;;;32.80;22.87;;;;;;;-1.96;91.96;97290.06;4933442;28;21004;-70
2020/12/03 08:14:33;;;;;;;25.90;19.73;;;;;;;-2.05;93.49;97286.31;4965658;28;20452;-71
2020/12/03 08:17:02;;;;;;;28.73;20.23;;;;;;;-2.31;92.52;97290.63;4972720;28;20447;-72
2020/12/03 08:19:31;;;;;;;31.27;20.60;;;;;;;-2.14;93.18;97289.50;4963382;28;20562;-71
2020/12/03 08:21:58;;;;;;;28.73;20.37;;;;;;;-2.37;92.21;97284.91;4955420;28;20755;-71
2020/12/03 08:24:27;;;;;;;30.53;20.07;;;;;;;-2.29;92.60;97284.38;4963869;28;20705;-69
2020/12/03 08:26:58;;;;;;;29.70;20.60;;;;;;;-2.37;92.92;97277.13;4940927;28;20445;-69
2020/12/03 08:29:45;;;;;;;25.93;18.83;;;;;;;-2.19;92.74;97269.03;4969575;28;20448;-69
2020/12/03 08:32:12;;;;;;;27.97;21.00;;;;;;;-2.38;94.54;97280.66;4974074;28;20465;-71
2020/12/03 08:34:41;;;;;;;33.63;22.03;;;;;;;-2.18;93.48;97275.91;4975172;28;20468;-71
2020/12/03 08:37:11;;;;;;;32.53;22.20;;;;;;;-2.34;94.62;97278.66;4956103;28;20480;-71
2020/12/03 08:39:39;;;;;;;31.73;22.10;;;;;;;-2.16;94.02;97279.22;4963044;28;20441;-71
2020/12/03 08:42:07;;;;;;;31.83;21.53;;;;;;;-2.18;92.56;97281.09;4935337;28;21135;-71
2020/12/03 08:44:34;;;;;;;35.53;22.47;;;;;;;-2.22;93.32;97275.28;4964094;28;20496;-72
2020/12/03 08:47:07;;;;;;;29.80;20.63;;;;;;;-2.13;93.81;97275.59;4976723;28;20475;-72
2020/12/03 08:49:34;;;;;;;29.83;21.87;;;;;;;-2.08;93.92;97269.19;4973013;28;20557;-71
2020/12/03 08:52:02;;;;;;;30.63;20.87;;;;;;;-2.17;94.42;97271.56;4964394;28;20457;-72
2020/12/03 08:54:30;;;;;;;32.97;20.83;;;;;;;-2.05;94.13;97270.72;4967347;28;21173;-69
2020/12/03 08:57:01;;;;;;;31.87;20.90;;;;;;;-2.12;94.10;97267.69;4973271;28;20452;-71
2020/12/03 08:59:31;;;;;;;30.50;20.60;;;;;;;-2.09;93.57;97264.06;4935511;28;20696;-71
2020/12/03 09:02:07;;;;;;;31.73;21.50;;;;;;;-2.19;93.49;97259.50;4968538;28;20440;-71
2020/12/03 09:04:35;;;;;;;35.60;22.80;;;;;;;-2.05;93.59;97257.75;4966090;28;20614;-71
2020/12/03 09:07:05;;;;;;;29.67;21.37;;;;;;;-2.02;94.29;97252.34;4973156;28;20443;-71
2020/12/03 09:09:33;;;;;;;34.37;22.23;;;;;;;-2.00;95.47;97245.28;4963009;28;20670;-70
2020/12/03 09:12:00;;;;;;;31.53;21.23;;;;;;;-2.00;93.44;97247.06;4972045;28;20822;-72
2020/12/03 09:14:31;;;;;;;34.40;21.80;;;;;;;-2.17;94.14;97233.44;4936927;28;20590;-71
2020/12/03 09:17:01;;;;;;;32.43;20.87;;;;;;;-2.11;94.36;97225.22;4975598;28;20920;-71
2020/12/03 09:19:29;;;;;;;32.80;21.97;;;;;;;-2.10;94.71;97224.28;4972093;28;20453;-69
2020/12/03 09:21:57;;;;;;;30.20;20.90;;;;;;;-2.02;93.10;97226.38;4979919;28;20932;-71
2020/12/03 09:24:27;;;;;;;29.00;20.40;;;;;;;-1.94;97.07;97220.66;4957939;28;20613;-71
2020/12/03 09:26:58;;;;;;;28.40;20.83;;;;;;;-1.88;94.63;97229.81;4974898;28;20536;-71
2020/12/03 09:29:25;;;;;;;31.23;22.30;;;;;;;-1.92;91.84;97235.19;4931105;28;20452;-72
2020/12/03 09:32:12;;;;;;;33.30;20.97;;;;;;;-1.97;94.25;97223.47;4972479;28;20512;-71
2020/12/03 09:34:41;;;;;;;30.67;20.37;;;;;;;-2.04;94.98;97216.09;4974822;28;20763;-72
2020/12/03 09:37:08;;;;;;;35.83;22.80;;;;;;;-1.73;95.71;97218.38;4966757;28;20450;-71
2020/12/03 09:39:36;;;;;;;30.10;20.57;;;;;;;-1.84;93.25;97203.50;4962582;28;20787;-72
2020/12/03 09:42:04;;;;;;;33.00;23.17;;;;;;;-1.76;97.29;97200.38;4969007;28;20455;-73
2020/12/03 09:44:33;;;;;;;32.70;20.80;;;;;;;-1.82;93.05;97195.63;4936479;28;20492;-71
2020/12/03 09:47:03;;;;;;;31.30;21.83;;;;;;;-2.02;92.99;97192.63;4970891;28;20441;-71
2020/12/03 09:49:30;;;;;;;31.83;20.93;;;;;;;-2.04;92.80;97192.75;4967634;28;20459;-71
2020/12/03 09:52:10;;;;;;;30.10;21.30;;;;;;;-1.94;98.13;97190.31;4970701;28;20452;-72
2020/12/03 09:54:38;;;;;;;33.47;21.83;;;;;;;-1.94;95.27;97181.72;4958293;28;20535;-73
2020/12/03 09:57:05;;;;;;;32.53;22.00;;;;;;;-1.87;94.01;97180.34;4969791;28;20448;-71
2020/12/03 09:59:32;;;;;;;31.63;21.93;;;;;;;-1.85;93.54;97170.69;4936571;28;20454;-70
2020/12/03 10:02:33;;;;;;;27.97;20.27;;;;;;;-1.79;93.61;97164.25;4967388;28;20438;-72
2020/12/03 10:05:10;;;;;;;31.67;21.30;;;;;;;-2.05;93.99;97152.13;4976251;28;20489;-72
2020/12/03 10:08:19;;;;;;;29.87;21.77;;;;;;;-2.04;95.23;97152.94;4972095;28;20600;-72
2020/12/03 10:10:52;;;;;;;32.33;21.83;;;;;;;-1.85;94.04;97138.69;4963105;28;20456;-71
2020/12/03 10:13:32;;;;;;;28.33;20.17;;;;;;;-1.81;94.02;97133.16;4968564;28;20512;-73
2020/12/03 10:16:03;;;;;;;30.37;21.00;;;;;;;-1.83;93.35;97124.66;4934545;28;21163;-72
2020/12/03 10:18:38;;;;;;;31.90;22.00;;;;;;;-1.88;94.44;97128.53;4969489;28;20813;-72
2020/12/03 10:21:06;;;;;;;28.90;21.13;;;;;;;-1.86;93.36;97119.66;4967078;28;20440;-70
2020/12/03 10:23:53;;;;;;;28.90;21.13;;;;;;;-1.84;95.56;97101.41;4969867;28;20467;-72
2020/12/03 10:26:31;;;;;;;31.90;23.27;;;;;;;-1.84;93.21;97094.41;4959476;28;20591;-72
2020/12/03 10:29:15;;;;;;;32.97;22.50;;;;;;;-1.80;93.65;97087.25;4971653;28;20867;-71
2020/12/03 10:31:43;;;;;;;31.70;20.47;;;;;;;-1.75;93.62;97083.38;4955683;28;20493;-73
2020/12/03 10:34:11;;;;;;;34.53;22.23;;;;;;;-1.85;93.52;97078.97;4967090;28;20474;-71
2020/12/03 10:36:45;;;;;;;30.93;22.03;;;;;;;-1.75;92.07;97078.19;4967204;28;20638;-72
2020/12/03 10:39:14;;;;;;;33.67;24.67;;;;;;;-1.73;93.33;97077.22;4974316;28;20482;-70
2020/12/03 10:41:43;;;;;;;33.80;22.73;;;;;;;-1.88;92.59;97077.41;4963338;28;20860;-69
2020/12/03 10:44:13;;;;;;;31.63;21.40;;;;;;;-1.69;92.47;97069.13;4974472;28;20456;-70
2020/12/03 10:46:46;;;;;;;33.67;21.43;;;;;;;-1.75;94.66;97072.16;4933946;28;20746;-70
2020/12/03 10:49:15;;;;;;;34.53;23.40;;;;;;;-1.79;94.15;97070.72;4968857;28;20449;-71
2020/12/03 10:51:43;;;;;;;30.53;21.40;;;;;;;-1.72;93.56;97071.94;4968449;28;20438;-70
2020/12/03 10:54:10;;;;;;;34.93;22.63;;;;;;;-1.67;92.82;97064.66;4973250;28;20449;-70
2020/12/03 10:56:39;;;;;;;30.57;21.33;;;;;;;-1.53;92.88;97068.84;4960069;28;20702;-72
2020/12/03 10:59:33;;;;;;;36.23;23.97;;;;;;;-1.59;93.02;97061.50;4975379;28;20739;-71
2020/12/03 11:02:00;;;;;;;33.37;20.53;;;;;;;-1.56;94.55;97055.25;4928887;28;20469;-71
2020/12/03 11:04:27;;;;;;;34.50;24.00;;;;;;;-1.57;93.31;97054.44;4972222;28;20828;-71
2020/12/03 11:06:57;;;;;;;34.43;23.03;;;;;;;-1.79;93.26;97042.16;4965634;28;20852;-72
2020/12/03 11:09:27;;;;;;;35.37;23.30;;;;;;;-1.58;94.64;97034.56;4967734;28;20773;-71
2020/12/03 11:11:54;;;;;;;36.40;22.20;;;;;;;-1.66;95.26;97042.09;4956958;28;20448;-72
2020/12/03 11:14:22;;;;;;;34.07;23.77;;;;;;;-1.68;94.65;97026.63;4967548;28;20471;-72
2020/12/03 11:16:56;;;;;;;37.27;24.80;;;;;;;-1.64;94.79;97029.84;4939046;28;20461;-72
2020/12/03 11:19:44;;;;;;;32.90;25.33;;;;;;;-1.67;95.03;97036.06;4971522;28;20536;-71
2020/12/03 11:22:26;;;;;;;38.50;24.03;;;;;;;-1.65;96.09;97031.59;4972495;28;20455;-71
2020/12/03 11:24:59;;;;;;;31.70;24.23;;;;;;;-1.63;95.41;97023.69;4974134;28;20591;-71
2020/12/03 11:27:28;;;;;;;36.57;23.83;;;;;;;-1.43;93.13;97021.41;4960721;28;20579;-71
2020/12/03 11:29:55;;;;;;;37.17;22.73;;;;;;;-1.48;93.55;97014.78;4972394;28;20217;-71
2020/12/03 11:32:23;;;;;;;34.60;23.13;;;;;;;-1.63;94.11;97021.91;4931735;28;20467;-72
2020/12/03 11:34:50;;;;;;;32.47;22.00;;;;;;;-1.64;94.83;97016.84;4967552;28;20457;-73
2020/12/03 11:37:22;;;;;;;33.47;22.80;;;;;;;-1.54;94.45;97023.00;4964896;28;20442;-71
2020/12/03 11:39:51;;;;;;;31.57;21.33;;;;;;;-1.54;95.58;97017.81;4975874;28;20449;-72
2020/12/03 11:42:34;;;;;;;32.43;23.67;;;;;;;-1.46;94.72;97014.66;4954940;28;20448;-71